Time;durP1;ratioP1;P1;durP2;ratioP2;P2;SDS_P1;SDS_P2;PMS_P1;PMS_P2;Temp;Humidity;BMP_temperature;BMP_pressure;BME280_temperature;BME280_humidity;BME280_pressure;Samples;Min_cycle;Max_cycle;Signal;HPM_P1;HPM_P2
2022/10/18 00:01:23;;;;;;;;;15.25;13.00;;;;;19.13;71.13;101828.88;5095736;27;70550;-51
2022/10/18 00:03:48;;;;;;;;;10.75;10.00;;;;;19.15;70.93;101823.50;5092394;27;61284;-49
2022/10/18 00:06:14;;;;;;;;;12.50;10.50;;;;;19.14;70.68;101830.59;5097428;27;64587;-49
2022/10/18 00:08:39;;;;;;;;;10.25;10.25;;;;;19.12;70.64;101826.28;5095004;27;45609;-50
2022/10/18 00:11:05;;;;;;;;;14.25;8.50;;;;;19.11;70.65;101829.88;5097449;27;45526;-46
2022/10/18 00:13:31;;;;;;;;;13.50;10.50;;;;;19.09;70.58;101824.66;5088814;27;45984;-48
2022/10/18 00:15:59;;;;;;;;;10.00;9.75;;;;;19.12;70.76;101828.94;5092132;27;45971;-45
2022/10/18 00:18:25;;;;;;;;;11.75;8.00;;;;;19.12;70.84;101832.47;5090101;27;45636;-47
2022/10/18 00:21:08;;;;;;;;;11.50;8.50;;;;;19.11;70.93;101837.84;5076714;27;45382;-45
2022/10/18 00:23:34;;;;;;;;;9.50;8.75;;;;;19.12;70.96;101847.50;5073978;27;46962;-47
2022/10/18 00:26:02;;;;;;;;;9.50;8.75;;;;;19.12;70.68;101840.44;5091072;27;45430;-45
2022/10/18 00:28:28;;;;;;;;;12.50;9.00;;;;;19.14;70.84;101848.28;5096787;27;46228;-45
2022/10/18 00:30:53;;;;;;;;;7.00;7.00;;;;;19.14;70.65;101849.19;5091322;27;45466;-46
2022/10/18 00:33:19;;;;;;;;;8.00;8.00;;;;;19.14;70.54;101841.22;5078031;27;48054;-46
2022/10/18 00:35:44;;;;;;;;;9.75;6.75;;;;;19.16;70.44;101849.97;5093786;27;45363;-46
2022/10/18 00:38:09;;;;;;;;;11.25;8.25;;;;;19.16;70.76;101849.97;5085987;27;69161;-47
2022/10/18 00:40:35;;;;;;;;;9.00;8.75;;;;;19.18;70.54;101841.09;5089705;27;45347;-48
2022/10/18 00:43:00;;;;;;;;;9.50;8.00;;;;;19.18;70.46;101836.63;5071483;27;69876;-45
2022/10/18 00:45:26;;;;;;;;;10.75;7.25;;;;;19.20;70.46;101832.13;5092178;27;57566;-46
2022/10/18 00:47:55;;;;;;;;;11.25;8.00;;;;;19.21;70.72;101838.28;5091275;27;45171;-48
2022/10/18 00:50:22;;;;;;;;;11.75;9.00;;;;;19.23;70.76;101847.03;5075233;27;45441;-45
2022/10/18 00:52:57;;;;;;;;;16.00;10.00;;;;;19.24;70.30;101846.94;5096244;27;45560;-49
2022/10/18 00:55:24;;;;;;;;;9.50;8.50;;;;;19.25;70.59;101853.16;5099258;27;45781;-45
2022/10/18 00:57:49;;;;;;;;;9.75;8.25;;;;;19.25;70.63;101851.34;5094909;27;45443;-45
2022/10/18 01:00:15;;;;;;;;;10.00;10.00;;;;;19.26;70.87;101847.75;5095598;27;45409;-47
2022/10/18 01:02:42;;;;;;;;;11.00;10.75;;;;;19.27;71.07;101853.94;5095346;27;46357;-46
2022/10/18 01:05:10;;;;;;;;;11.00;10.00;;;;;19.26;70.93;101854.84;5086162;27;45763;-48
2022/10/18 01:07:54;;;;;;;;;12.75;11.00;;;;;19.27;70.37;101852.13;5095540;27;45303;-48
2022/10/18 01:10:22;;;;;;;;;15.50;8.75;;;;;19.28;70.94;101861.81;5072384;27;45602;-45
2022/10/18 01:13:14;;;;;;;;;13.50;13.00;;;;;19.29;70.47;101857.38;5079770;27;47136;-49
2022/10/18 01:16:18;;;;;;;;;11.25;11.25;;;;;19.29;70.53;101863.53;5086430;27;45479;-50
2022/10/18 01:18:50;;;;;;;;;12.00;11.50;;;;;19.29;70.89;101863.53;5067590;28;47182;-48
2022/10/18 01:21:33;;;;;;;;;13.25;12.00;;;;;19.30;70.63;101867.94;5094888;27;45445;-48
2022/10/18 01:24:54;;;;;;;;;12.75;10.50;;;;;19.29;70.47;101870.66;5079807;27;45526;-48
2022/10/18 01:27:38;;;;;;;;;11.25;11.00;;;;;19.29;70.59;101865.34;5016616;27;45911;-49
2022/10/18 01:30:24;;;;;;;;;12.75;11.00;;;;;19.29;70.82;101868.84;5092083;27;45442;-47
2022/10/18 01:32:53;;;;;;;;;12.75;11.75;;;;;19.29;70.60;101862.69;5086594;27;45353;-45
2022/10/18 01:35:26;;;;;;;;;15.00;12.50;;;;;19.29;71.05;101868.00;5077385;27;46262;-48
2022/10/18 01:37:55;;;;;;;;;11.50;10.25;;;;;19.29;70.84;101866.19;5069829;27;46536;-45
2022/10/18 01:40:21;;;;;;;;;12.75;10.50;;;;;19.31;70.91;101868.78;5069188;27;45276;-48
2022/10/18 01:42:48;;;;;;;;;19.75;14.75;;;;;19.30;70.41;101867.03;5062458;27;70693;-47
2022/10/18 01:45:15;;;;;;;;;14.00;12.00;;;;;19.30;70.36;101865.28;5068406;27;72574;-48
2022/10/18 01:47:42;;;;;;;;;13.50;11.25;;;;;19.29;70.55;101860.88;5085261;27;45468;-49
2022/10/18 01:50:08;;;;;;;;;10.00;10.00;;;;;19.30;70.41;101875.88;5080926;27;45305;-48
2022/10/18 01:52:33;;;;;;;;;13.00;11.50;;;;;19.29;70.18;101868.84;5094437;27;45981;-44
2022/10/18 01:54:59;;;;;;;;;13.25;9.25;;;;;19.28;69.99;101875.09;5084293;27;67912;-46
2022/10/18 01:57:34;;;;;;;;;10.00;10.00;;;;;19.28;70.20;101856.53;5077448;27;61808;-44
2022/10/18 02:00:14;;;;;;;;;11.75;9.50;;;;;19.27;70.40;101854.78;5077222;27;45288;-45
2022/10/18 02:02:48;;;;;;;;;12.50;10.25;;;;;19.26;69.97;101846.88;5097213;27;45316;-48
2022/10/18 02:05:39;;;;;;;;;13.00;10.00;;;;;19.26;69.82;101850.41;5069610;27;46807;-47
2022/10/18 02:08:45;;;;;;;;;15.75;10.75;;;;;19.26;70.15;101852.19;5075953;27;45708;-45
2022/10/18 02:11:13;;;;;;;;;15.00;11.50;;;;;19.24;69.94;101856.72;5082011;27;45410;-47
2022/10/18 02:13:48;;;;;;;;;10.50;10.00;;;;;19.23;70.50;101849.69;5095735;27;45341;-47
2022/10/18 02:16:18;;;;;;;;;12.25;10.75;;;;;19.21;70.17;101852.44;5058266;27;46963;-44
2022/10/18 02:18:48;;;;;;;;;20.50;10.25;;;;;19.21;70.13;101862.16;5074560;27;45933;-45
2022/10/18 02:21:16;;;;;;;;;15.00;11.00;;;;;19.19;69.90;101862.22;5092199;27;45518;-49
2022/10/18 02:23:44;;;;;;;;;14.50;12.00;;;;;19.19;69.91;101854.25;5099803;27;45323;-46
2022/10/18 02:26:09;;;;;;;;;14.50;13.00;;;;;19.17;70.19;101858.78;5076092;27;45729;-46
2022/10/18 02:28:34;;;;;;;;;15.75;12.25;;;;;19.16;70.16;101863.25;5089428;27;63580;-47
2022/10/18 02:31:28;;;;;;;;;14.00;11.00;;;;;19.16;70.03;101862.38;5089930;27;45377;-46
2022/10/18 02:34:00;;;;;;;;;13.75;11.50;;;;;19.15;69.73;101861.50;5071367;27;45213;-45
2022/10/18 02:36:44;;;;;;;;;13.25;12.00;;;;;19.14;70.05;101867.75;5093242;27;46618;-46
2022/10/18 02:39:17;;;;;;;;;14.00;13.00;;;;;19.12;69.98;101871.38;5090935;27;45505;-47
2022/10/18 02:41:43;;;;;;;;;16.00;13.25;;;;;19.12;70.27;101872.28;5057948;28;45408;-47
2022/10/18 02:44:09;;;;;;;;;17.00;14.25;;;;;19.13;69.86;101871.31;5069334;27;53319;-50
2022/10/18 02:46:34;;;;;;;;;12.25;10.50;;;;;19.13;69.94;101875.78;5082943;27;45437;-46
2022/10/18 02:49:00;;;;;;;;;12.25;12.00;;;;;19.14;70.20;101878.38;5094504;27;68655;-47
2022/10/18 02:51:25;;;;;;;;;13.00;13.00;;;;;19.14;70.16;101881.03;5098730;27;45626;-50
2022/10/18 02:53:50;;;;;;;;;12.25;12.25;;;;;19.14;70.33;101878.38;5092065;27;45827;-48
2022/10/18 02:56:16;;;;;;;;;12.75;12.00;;;;;19.13;69.92;101879.28;5098226;27;58288;-44
2022/10/18 02:58:41;;;;;;;;;14.50;11.75;;;;;19.14;70.17;101890.75;5091610;27;72295;-45
2022/10/18 03:01:06;;;;;;;;;15.50;13.25;;;;;19.13;70.27;101889.91;5095925;27;47183;-44
2022/10/18 03:03:32;;;;;;;;;9.00;9.00;;;;;19.12;70.13;101893.50;5074956;27;61057;-51
2022/10/18 03:05:57;;;;;;;;;15.25;13.25;;;;;19.12;70.36;101888.19;5096387;27;71523;-50
2022/10/18 03:08:22;;;;;;;;;14.75;12.50;;;;;19.14;70.12;101881.03;5093536;27;45465;-44
2022/10/18 03:10:48;;;;;;;;;14.25;13.00;;;;;19.15;70.13;101887.19;5087909;27;45405;-48
2022/10/18 03:13:13;;;;;;;;;15.25;12.00;;;;;19.16;70.06;101886.28;5094179;27;45374;-44
2022/10/18 03:15:39;;;;;;;;;15.50;12.50;;;;;19.13;70.02;101876.63;5086407;27;71841;-45
2022/10/18 03:18:04;;;;;;;;;18.50;15.00;;;;;19.15;70.32;101882.72;5090053;27;45413;-45
2022/10/18 03:20:29;;;;;;;;;17.75;14.00;;;;;19.17;70.17;101885.31;5089264;27;45519;-44
2022/10/18 03:22:55;;;;;;;;;18.75;15.00;;;;;19.16;70.09;101896.88;5100392;27;64507;-46
2022/10/18 03:25:20;;;;;;;;;18.50;15.75;;;;;19.17;69.90;101903.91;5094358;27;45233;-47
2022/10/18 03:27:46;;;;;;;;;17.75;15.50;;;;;19.19;70.05;101906.47;5087477;27;70255;-48
2022/10/18 03:30:12;;;;;;;;;14.50;14.00;;;;;19.19;70.19;101912.63;5100147;27;45424;-47
2022/10/18 03:32:38;;;;;;;;;15.50;15.00;;;;;19.20;70.07;101914.38;5092971;27;45427;-46
2022/10/18 03:35:04;;;;;;;;;18.25;15.00;;;;;19.20;70.24;101909.06;5093851;27;46181;-47
2022/10/18 03:37:30;;;;;;;;;16.25;13.75;;;;;19.20;70.32;101914.38;5091299;27;45320;-48
2022/10/18 03:39:55;;;;;;;;;16.25;14.25;;;;;19.21;70.02;101910.81;5095377;27;45449;-48
2022/10/18 03:42:20;;;;;;;;;19.75;15.75;;;;;19.21;70.12;101918.78;5096201;27;72024;-44
2022/10/18 03:44:46;;;;;;;;;20.25;15.25;;;;;19.21;69.87;101909.94;5087978;27;74167;-48
2022/10/18 03:47:11;;;;;;;;;15.75;15.25;;;;;19.21;69.98;101917.88;5098390;27;72001;-50
2022/10/18 03:49:37;;;;;;;;;17.00;14.25;;;;;19.19;70.05;101917.09;5090290;27;45469;-47
2022/10/18 03:52:02;;;;;;;;;15.00;14.00;;;;;19.19;69.88;101920.59;5097643;27;72125;-47
2022/10/18 03:54:27;;;;;;;;;14.75;13.00;;;;;19.19;70.34;101922.41;5089924;27;46137;-46
2022/10/18 03:56:53;;;;;;;;;18.50;14.75;;;;;19.18;69.71;101916.25;5078773;28;69840;-46
2022/10/18 03:59:18;;;;;;;;;15.75;13.00;;;;;19.16;70.05;101929.56;5085202;27;69061;-46
2022/10/18 04:01:43;;;;;;;;;16.25;14.00;;;;;19.16;69.67;101924.28;5093308;27;45481;-47
2022/10/18 04:04:09;;;;;;;;;15.75;10.75;;;;;19.13;69.92;101924.41;5091962;27;70362;-45
2022/10/18 04:06:34;;;;;;;;;15.00;13.00;;;;;19.12;69.79;101932.41;5086730;27;45307;-44
2022/10/18 04:08:59;;;;;;;;;15.25;12.75;;;;;19.07;70.03;101937.06;5083214;27;47708;-44
2022/10/18 04:11:25;;;;;;;;;15.75;15.00;;;;;19.06;70.01;101935.34;5084260;27;67380;-51
2022/10/18 04:13:50;;;;;;;;;16.00;15.50;;;;;19.06;69.69;101938.00;5091363;27;74886;-48
2022/10/18 04:16:15;;;;;;;;;12.75;12.50;;;;;19.03;69.70;101936.34;5088323;27;71868;-46
2022/10/18 04:18:41;;;;;;;;;13.50;13.00;;;;;19.04;69.94;101942.53;5096391;27;67155;-46
2022/10/18 04:21:06;;;;;;;;;17.00;14.75;;;;;19.04;70.08;101935.41;5086905;27;45555;-49
2022/10/18 04:23:32;;;;;;;;;13.00;12.25;;;;;19.05;69.97;101939.81;5088895;27;50262;-49
2022/10/18 04:25:57;;;;;;;;;15.00;13.00;;;;;19.04;69.94;101940.72;5095660;27;68248;-47
2022/10/18 04:28:22;;;;;;;;;17.25;16.00;;;;;19.04;70.03;101939.88;5097856;27;61420;-45
2022/10/18 04:30:51;;;;;;;;;14.25;13.00;;;;;19.03;69.83;101933.69;5094443;27;45274;-50
2022/10/18 04:33:17;;;;;;;;;15.75;12.75;;;;;19.03;69.98;101940.78;5088640;27;46312;-46
2022/10/18 04:35:42;;;;;;;;;12.75;11.75;;;;;19.01;70.04;101930.25;5092789;27;45483;-48
2022/10/18 04:38:08;;;;;;;;;13.50;12.25;;;;;19.01;69.71;101921.44;5087531;27;62131;-47
2022/10/18 04:40:33;;;;;;;;;12.75;12.25;;;;;18.99;69.62;101925.94;5078330;27;45226;-48
2022/10/18 04:42:58;;;;;;;;;15.00;13.00;;;;;18.99;69.96;101929.44;5092754;27;69548;-48
2022/10/18 04:45:24;;;;;;;;;14.50;12.75;;;;;18.98;69.68;101930.38;5093356;27;72172;-48
2022/10/18 04:47:49;;;;;;;;;13.25;12.00;;;;;18.96;69.71;101933.09;5088956;27;45360;-47
2022/10/18 04:50:15;;;;;;;;;18.50;13.50;;;;;18.94;69.68;101937.59;5092094;27;46311;-46
2022/10/18 04:52:40;;;;;;;;;15.00;12.25;;;;;18.94;69.66;101936.75;5092859;27;49443;-48
2022/10/18 04:55:06;;;;;;;;;21.25;14.25;;;;;18.91;69.55;101935.09;5085616;27;68895;-50
2022/10/18 04:57:31;;;;;;;;;16.50;14.25;;;;;18.90;69.68;101943.97;5092854;27;45351;-50
2022/10/18 04:59:56;;;;;;;;;14.50;12.50;;;;;18.88;70.00;101948.47;5096308;27;65158;-50
2022/10/18 05:02:22;;;;;;;;;13.50;11.00;;;;;18.88;69.84;101947.63;5095010;27;62692;-50
2022/10/18 05:04:47;;;;;;;;;15.50;11.50;;;;;18.87;69.69;101953.84;5094451;27;72509;-48
2022/10/18 05:07:12;;;;;;;;;15.75;13.75;;;;;18.85;69.85;101953.91;5090534;27;60541;-50
2022/10/18 05:09:38;;;;;;;;;15.25;12.00;;;;;18.84;69.94;101954.84;5095870;27;45281;-49
2022/10/18 05:12:03;;;;;;;;;16.50;12.25;;;;;18.83;69.47;101952.25;5089261;27;68699;-50
2022/10/18 05:14:28;;;;;;;;;17.75;11.75;;;;;18.76;70.05;101943.66;5092992;27;66352;-46
2022/10/18 05:16:54;;;;;;;;;15.50;10.75;;;;;18.81;69.91;101954.09;5068540;27;45407;-47
2022/10/18 05:19:19;;;;;;;;;14.25;13.25;;;;;18.79;69.92;101954.16;5089454;27;45418;-50
2022/10/18 05:21:44;;;;;;;;;13.00;11.00;;;;;18.79;69.74;101960.31;5092009;27;73140;-47
2022/10/18 05:24:10;;;;;;;;;14.25;11.25;;;;;18.76;69.86;101954.28;5072922;27;45487;-44
2022/10/18 05:26:36;;;;;;;;;16.25;13.00;;;;;18.75;69.86;101955.19;5071042;27;45446;-44
2022/10/18 05:29:01;;;;;;;;;15.50;13.25;;;;;18.72;69.84;101944.72;5084804;27;68497;-47
2022/10/18 05:31:26;;;;;;;;;15.75;12.50;;;;;18.73;70.10;101952.63;5084765;27;45673;-47
2022/10/18 05:33:52;;;;;;;;;13.50;13.25;;;;;18.73;69.97;101955.28;5089002;27;72734;-46
2022/10/18 05:36:17;;;;;;;;;14.75;9.75;;;;;18.73;70.01;101954.38;5090560;27;58714;-49
2022/10/18 05:38:44;;;;;;;;;17.25;14.50;;;;;18.73;69.96;101952.63;5099064;27;61981;-46
2022/10/18 05:41:10;;;;;;;;;16.50;13.00;;;;;18.74;69.88;101945.53;5090995;27;45599;-47
2022/10/18 05:43:35;;;;;;;;;14.25;9.50;;;;;18.77;70.18;101954.22;5090350;27;45880;-43
2022/10/18 05:46:01;;;;;;;;;10.75;10.00;;;;;18.76;69.82;101951.63;5091706;27;45316;-46
2022/10/18 05:48:26;;;;;;;;;14.00;11.75;;;;;18.74;69.91;101942.88;5074316;27;45279;-45
2022/10/18 05:50:51;;;;;;;;;225.00;176.50;;;;;18.72;69.84;101950.88;5090048;27;46920;-43
2022/10/18 05:53:17;;;;;;;;;16.50;15.00;;;;;18.74;70.04;101950.81;5093424;27;46148;-45
2022/10/18 05:55:42;;;;;;;;;18.50;15.00;;;;;18.75;69.85;101955.19;5096408;27;45436;-46
2022/10/18 05:58:08;;;;;;;;;16.50;12.75;;;;;18.76;70.10;101960.44;5081614;27;56517;-47
2022/10/18 06:00:33;;;;;;;;;15.75;14.00;;;;;18.77;69.64;101966.63;5092985;27;45254;-45
2022/10/18 06:02:58;;;;;;;;;14.00;13.50;;;;;18.78;70.09;101968.31;5075139;27;45504;-44
2022/10/18 06:05:24;;;;;;;;;18.25;14.50;;;;;18.77;70.06;101962.16;5075824;27;45459;-44
2022/10/18 06:07:49;;;;;;;;;14.50;13.00;;;;;18.81;69.99;101967.34;5069315;27;48260;-44
2022/10/18 06:10:15;;;;;;;;;16.25;14.75;;;;;18.80;69.92;101971.78;5092610;27;45513;-47
2022/10/18 06:12:40;;;;;;;;;13.00;11.75;;;;;18.81;69.94;101973.50;5052861;27;46197;-48
2022/10/18 06:15:06;;;;;;;;;12.50;11.50;;;;;18.84;69.86;101976.06;5091911;27;64418;-50
2022/10/18 06:17:31;;;;;;;;;15.75;12.75;;;;;18.85;70.06;101980.44;5075780;27;45458;-48
2022/10/18 06:19:57;;;;;;;;;13.25;10.25;;;;;18.86;70.03;101978.66;5088080;27;64985;-48
2022/10/18 06:22:22;;;;;;;;;16.25;12.00;;;;;18.87;69.74;101975.91;5073260;28;53819;-43
2022/10/18 06:24:47;;;;;;;;;19.50;16.00;;;;;18.89;69.86;101983.81;5091192;27;45455;-44
2022/10/18 06:27:13;;;;;;;;;18.75;13.25;;;;;18.91;69.85;101992.56;5061902;27;45278;-46
2022/10/18 06:29:39;;;;;;;;;13.75;11.50;;;;;18.91;69.71;101997.88;5060525;27;46697;-45
2022/10/18 06:32:06;;;;;;;;;16.25;13.25;;;;;18.92;69.95;101984.53;5095664;27;45359;-43
2022/10/18 06:34:31;;;;;;;;;17.50;13.50;;;;;18.93;69.58;101996.03;5089445;27;45454;-45
2022/10/18 06:36:57;;;;;;;;;15.25;12.00;;;;;18.96;69.57;101990.59;5090925;27;45511;-47
2022/10/18 06:39:22;;;;;;;;;12.00;11.00;;;;;18.94;69.34;101993.31;5091335;27;46067;-47
2022/10/18 06:41:48;;;;;;;;;12.75;9.25;;;;;18.98;69.64;102002.00;5097153;27;45378;-45
2022/10/18 06:44:13;;;;;;;;;12.00;11.75;;;;;18.98;69.15;101994.03;5087797;27;54628;-43
2022/10/18 06:46:46;;;;;;;;;10.50;10.25;;;;;18.97;69.41;101995.84;5091567;27;45348;-44
2022/10/18 06:49:15;;;;;;;;;11.00;10.75;;;;;18.99;69.53;101994.91;5102102;27;47068;-44
2022/10/18 06:51:41;;;;;;;;;15.00;11.25;;;;;18.99;69.19;102005.53;5097817;27;45403;-43
2022/10/18 06:54:07;;;;;;;;;14.25;10.50;;;;;18.98;69.29;102007.28;5097359;27;46448;-43
2022/10/18 06:56:33;;;;;;;;;12.25;12.00;;;;;18.99;69.47;102002.88;5089569;27;69468;-44
2022/10/18 06:58:58;;;;;;;;;12.50;10.00;;;;;19.00;68.82;102008.13;5090291;27;46346;-44
2022/10/18 07:01:23;;;;;;;;;12.00;10.75;;;;;19.00;69.44;102008.13;5093527;27;72274;-45
2022/10/18 07:03:52;;;;;;;;;15.75;9.00;;;;;19.02;69.05;102016.03;5073807;27;46929;-45
2022/10/18 07:06:18;;;;;;;;;11.50;10.75;;;;;19.03;69.04;102017.72;5096549;27;46084;-49
2022/10/18 07:08:44;;;;;;;;;13.00;9.25;;;;;19.01;68.76;102011.63;5101104;27;46723;-44
2022/10/18 07:11:18;;;;;;;;;12.00;10.00;;;;;19.03;69.04;102015.06;5079563;27;45324;-46
2022/10/18 07:13:43;;;;;;;;;13.00;10.25;;;;;19.02;69.08;102022.19;5080117;27;45398;-44
2022/10/18 07:16:14;;;;;;;;;14.25;10.75;;;;;19.04;69.10;102014.16;5086026;27;45461;-45
2022/10/18 07:18:42;;;;;;;;;9.75;9.00;;;;;19.03;68.92;102021.22;5083827;27;46004;-49
2022/10/18 07:21:09;;;;;;;;;12.75;10.00;;;;;19.04;69.03;102025.63;5092787;27;45722;-44
2022/10/18 07:23:40;;;;;;;;;10.50;10.25;;;;;19.05;68.83;102026.47;5102755;27;45460;-45
2022/10/18 07:26:13;;;;;;;;;11.25;9.50;;;;;19.07;68.82;102033.47;5080816;28;45352;-45
2022/10/18 07:28:38;;;;;;;;;10.25;9.00;;;;;19.08;68.80;102031.66;5092682;27;45912;-45
2022/10/18 07:31:05;;;;;;;;;13.50;10.00;;;;;19.11;68.88;102034.19;5102589;27;50513;-47
2022/10/18 07:33:30;;;;;;;;;12.75;9.00;;;;;19.12;68.25;102033.25;5097455;27;45284;-47
2022/10/18 07:36:00;;;;;;;;;10.00;9.75;;;;;19.15;68.57;102030.47;5095703;27;45303;-47
2022/10/18 07:38:26;;;;;;;;;9.50;8.00;;;;;19.16;68.36;102033.06;5097323;27;47206;-46
2022/10/18 07:41:02;;;;;;;;;8.50;7.00;;;;;19.20;68.09;102044.41;5078440;27;45303;-45
2022/10/18 07:43:27;;;;;;;;;8.25;8.25;;;;;19.22;68.47;102039.06;5093714;27;45205;-44
2022/10/18 07:45:58;;;;;;;;;10.50;8.00;;;;;19.24;68.08;102042.50;5102229;27;45281;-43
2022/10/18 07:48:24;;;;;;;;;8.75;8.00;;;;;19.24;68.04;102040.69;5102365;27;45458;-45
2022/10/18 07:50:49;;;;;;;;;9.75;9.00;;;;;19.25;68.25;102044.25;5099759;27;45352;-45
2022/10/18 07:53:15;;;;;;;;;10.50;6.75;;;;;19.27;68.08;102051.19;5079400;27;45692;-43
2022/10/18 07:55:40;;;;;;;;;59.25;45.75;;;;;19.29;68.12;102059.09;5081432;27;45418;-46
2022/10/18 07:58:06;;;;;;;;;34.00;28.25;;;;;19.30;67.94;102061.69;5083134;27;47106;-46
2022/10/18 08:00:31;;;;;;;;;27.00;22.50;;;;;19.33;68.11;102064.19;5101209;27;45309;-44
2022/10/18 08:02:58;;;;;;;;;11.25;10.50;;;;;19.35;67.93;102072.09;5101381;27;45330;-46
2022/10/18 08:05:24;;;;;;;;;9.25;8.00;;;;;19.35;67.67;102067.66;5101890;27;45616;-46
2022/10/18 08:07:49;;;;;;;;;10.00;8.00;;;;;19.37;67.71;102067.59;5100822;27;45972;-45
2022/10/18 08:10:14;;;;;;;;;10.00;8.50;;;;;19.37;67.46;102072.03;5077963;27;45339;-45
2022/10/18 08:12:40;;;;;;;;;11.00;9.25;;;;;19.38;67.30;102077.28;5080386;28;45319;-46
2022/10/18 08:15:06;;;;;;;;;14.75;10.50;;;;;19.39;67.78;102079.00;5095171;27;45280;-46
2022/10/18 08:17:31;;;;;;;;;10.25;9.75;;;;;19.41;67.31;102085.13;5090282;27;45744;-45
2022/10/18 08:19:57;;;;;;;;;6.75;6.00;;;;;19.45;67.58;102088.50;5101049;27;64704;-46
2022/10/18 08:22:22;;;;;;;;;10.25;7.75;;;;;19.46;67.50;102098.19;5097799;27;49431;-46
2022/10/18 08:24:48;;;;;;;;;12.25;7.50;;;;;19.42;67.46;102085.97;5099131;27;59407;-45
2022/10/18 08:27:13;;;;;;;;;9.00;7.00;;;;;19.48;66.99;102091.88;5096549;27;45345;-44
2022/10/18 08:29:39;;;;;;;;;8.75;6.00;;;;;19.48;67.10;102096.34;5101002;27;45375;-44
2022/10/18 08:32:06;;;;;;;;;4.75;4.00;;;;;19.51;67.39;102101.50;5088823;27;70462;-46
2022/10/18 08:34:31;;;;;;;;;7.00;7.00;;;;;19.51;66.96;102097.06;5100934;27;45342;-47
2022/10/18 08:36:57;;;;;;;;;9.25;7.25;;;;;19.53;66.92;102102.31;5097771;27;73679;-49
2022/10/18 08:39:22;;;;;;;;;12.25;10.00;;;;;19.52;66.90;102098.78;5091463;27;64374;-43
2022/10/18 08:42:09;;;;;;;;;5.75;5.75;;;;;19.54;67.06;102102.22;5079015;27;45369;-47
2022/10/18 08:44:43;;;;;;;;;8.00;6.00;;;;;19.54;66.58;102096.91;5092095;27;45480;-43
2022/10/18 08:47:27;;;;;;;;;10.75;8.00;;;;;19.60;66.75;102094.94;5076756;28;46931;-47
2022/10/18 08:50:00;;;;;;;;;7.25;5.00;;;;;19.63;66.68;102097.47;5100232;27;45306;-45
2022/10/18 08:52:43;;;;;;;;;6.00;6.00;;;;;19.63;66.65;102097.47;5101198;27;45515;-47
2022/10/18 08:55:17;;;;;;;;;32.75;30.25;;;;;19.60;66.49;102094.94;5077070;28;45384;-45
2022/10/18 08:57:44;;;;;;;;;20.25;15.75;;;;;19.60;66.33;102090.50;5079014;28;46092;-44
2022/10/18 09:00:17;;;;;;;;;11.25;8.00;;;;;19.62;66.39;102088.66;5076037;27;45625;-45
2022/10/18 09:02:54;;;;;;;;;4.00;4.00;;;;;19.63;66.38;102090.34;5083125;27;45481;-49
2022/10/18 09:05:28;;;;;;;;;7.25;6.00;;;;;19.65;66.32;102092.94;5100266;27;45285;-48
2022/10/18 09:08:14;;;;;;;;;4.75;4.00;;;;;19.64;66.26;102086.78;5101071;27;45415;-48
2022/10/18 09:10:56;;;;;;;;;7.00;4.50;;;;;19.67;66.26;102081.34;5078363;28;45966;-46
2022/10/18 09:13:33;;;;;;;;;3.75;3.75;;;;;19.73;66.20;102091.72;5076000;27;45350;-46
2022/10/18 09:16:01;;;;;;;;;7.00;5.75;;;;;19.79;66.33;102089.72;5090389;27;45352;-44
2022/10/18 09:18:51;;;;;;;;;4.50;4.00;;;;;19.83;65.95;102092.19;5077326;27;45454;-46
2022/10/18 09:21:34;;;;;;;;;5.00;5.00;;;;;19.89;66.24;102091.91;5082287;27;46053;-46
2022/10/18 09:24:27;;;;;;;;;5.00;5.00;;;;;19.97;65.89;102093.34;5101221;27;45367;-47
2022/10/18 09:26:57;;;;;;;;;4.75;4.50;;;;;20.00;65.64;102086.09;5062027;27;45524;-49
2022/10/18 09:29:29;;;;;;;;;4.75;4.25;;;;;20.03;65.68;102090.44;5100709;27;45697;-48
2022/10/18 09:32:18;;;;;;;;;17.75;14.00;;;;;20.05;65.25;102093.88;5094728;27;45265;-50
2022/10/18 09:34:57;;;;;;;;;14.00;13.50;;;;;20.09;65.18;102098.97;5093022;27;45505;-49
2022/10/18 09:37:23;;;;;;;;;9.00;6.75;;;;;20.11;65.46;102088.28;5097986;27;45770;-45
2022/10/18 09:39:51;;;;;;;;;7.75;7.50;;;;;20.13;65.11;102088.22;5081257;27;47085;-44
2022/10/18 09:42:25;;;;;;;;;7.50;7.50;;;;;20.14;64.79;102087.28;5080048;27;45427;-47
2022/10/18 09:44:53;;;;;;;;;8.25;6.00;;;;;20.15;64.90;102089.00;5080876;27;45328;-46
2022/10/18 09:47:23;;;;;;;;;4.50;4.00;;;;;20.14;65.30;102085.47;5095767;27;45490;-46
2022/10/18 09:49:55;;;;;;;;;9.75;7.00;;;;;20.15;65.13;102086.34;5095573;27;46069;-47
2022/10/18 09:52:27;;;;;;;;;7.00;7.00;;;;;20.12;64.93;102091.81;5085452;27;45827;-44
2022/10/18 09:54:59;;;;;;;;;10.00;8.50;;;;;20.10;64.89;102084.75;5078472;28;45811;-46
2022/10/18 09:57:44;;;;;;;;;6.25;6.25;;;;;20.12;65.08;102097.97;5074765;27;45411;-45
2022/10/18 10:00:45;;;;;;;;;11.50;9.00;;;;;20.13;65.03;102098.84;5080141;27;45379;-44
2022/10/18 10:03:14;;;;;;;;;10.25;9.25;;;;;20.15;65.48;102091.66;5071373;27;45372;-42
2022/10/18 10:05:40;;;;;;;;;8.50;7.00;;;;;20.18;65.47;102099.50;5098958;27;45414;-44
2022/10/18 10:08:06;;;;;;;;;12.00;9.00;;;;;20.21;65.26;102099.34;5080861;27;45489;-46
2022/10/18 10:10:32;;;;;;;;;10.00;8.50;;;;;20.23;65.40;102100.16;5076416;27;74956;-45
2022/10/18 10:13:21;;;;;;;;;11.25;9.25;;;;;20.24;65.20;102091.25;5094476;27;45498;-44
2022/10/18 10:15:59;;;;;;;;;9.00;8.00;;;;;20.25;64.96;102087.63;5090898;27;45453;-48
2022/10/18 10:18:36;;;;;;;;;9.75;9.00;;;;;20.27;65.17;102102.59;5091752;27;45446;-44
2022/10/18 10:21:06;;;;;;;;;8.50;6.50;;;;;20.27;65.37;102102.59;5061856;27;46282;-46
2022/10/18 10:23:32;;;;;;;;;9.50;9.25;;;;;20.30;65.10;102098.94;5079294;27;46169;-44
2022/10/18 10:26:00;;;;;;;;;8.75;8.00;;;;;20.33;64.96;102100.56;5096524;27;45327;-48
2022/10/18 10:28:34;;;;;;;;;10.25;7.75;;;;;20.36;65.26;102098.66;5078416;28;45458;-50
2022/10/18 10:31:22;;;;;;;;;6.75;6.75;;;;;20.36;64.69;102101.31;5070665;27;47836;-50
2022/10/18 10:33:59;;;;;;;;;13.00;10.50;;;;;20.41;64.86;102101.94;5081731;27;45834;-49
2022/10/18 10:36:24;;;;;;;;;14.25;11.00;;;;;20.45;64.98;102107.97;5088715;27;45260;-50
2022/10/18 10:39:06;;;;;;;;;11.50;9.00;;;;;20.48;65.09;102099.88;5081165;27;60106;-48
2022/10/18 10:41:32;;;;;;;;;9.25;7.25;;;;;20.49;64.89;102099.78;5095823;27;46424;-47
2022/10/18 10:44:01;;;;;;;;;7.75;5.75;;;;;20.49;64.78;102096.28;5097524;27;73206;-49
2022/10/18 10:46:33;;;;;;;;;11.25;8.50;;;;;20.51;65.16;102099.72;5101420;27;45359;-51
2022/10/18 10:48:59;;;;;;;;;10.00;7.25;;;;;20.53;64.25;102104.97;5093183;27;45365;-51
2022/10/18 10:51:33;;;;;;;;;5.00;3.75;;;;;20.56;64.99;102102.19;5092313;27;45502;-51
2022/10/18 10:54:15;;;;;;;;;6.50;4.00;;;;;20.59;64.09;102099.34;5077888;27;45388;-53
2022/10/18 10:56:59;;;;;;;;;8.50;7.00;;;;;20.66;64.44;102093.72;5094787;27;45450;-54
2022/10/18 10:59:26;;;;;;;;;5.25;4.00;;;;;20.72;63.80;102094.38;5099827;27;45285;-54
2022/10/18 11:02:14;;;;;;;;;1.75;1.00;;;;;20.77;63.83;102092.31;5082026;27;45798;-54
2022/10/18 11:04:40;;;;;;;;;4.25;4.25;;;;;20.83;63.86;102089.38;5094983;27;45485;-55
2022/10/18 11:07:24;;;;;;;;;3.50;3.00;;;;;20.88;63.23;102086.50;5102975;27;45472;-55
2022/10/18 11:09:49;;;;;;;;;4.00;4.00;;;;;20.92;63.63;102080.09;5083528;27;45758;-49
2022/10/18 11:12:45;;;;;;;;;4.00;3.00;;;;;20.97;63.53;102089.56;5102248;27;46068;-51
2022/10/18 11:15:35;;;;;;;;;17.75;16.50;;;;;21.03;62.81;102080.41;5082419;27;45837;-51
2022/10/18 11:18:18;;;;;;;;;5.00;3.25;;;;;21.07;63.61;102078.44;5069917;27;46037;-51
2022/10/18 11:20:51;;;;;;;;;6.75;6.75;;;;;21.04;62.26;102075.00;5088706;27;45497;-51
2022/10/18 11:23:18;;;;;;;;;4.00;2.00;;;;;21.01;62.50;102069.84;5081461;27;46593;-51
2022/10/18 11:25:46;;;;;;;;;8.25;4.00;;;;;20.95;62.37;102069.28;5063479;27;45563;-52